Time;durP1;ratioP1;P1;durP2;ratioP2;P2;SDS_P1;SDS_P2;PMS_P1;PMS_P2;Temp;Humidity;BMP_temperature;BMP_pressure;BME280_temperature;BME280_humidity;BME280_pressure;Samples;Min_cycle;Max_cycle;Signal;HPM_P1;HPM_P2
2023/12/09 00:01:19;;;;;;;;;;;2.50;99.90;;;;;;5059692;28;19925;-73
2023/12/09 00:03:45;;;;;;;;;;;2.60;99.90;;;;;;5062603;28;19980;-73
2023/12/09 00:06:12;;;;;;;;;;;2.60;99.90;;;;;;5062886;28;19921;-72
2023/12/09 00:08:40;;;;;;;;;;;2.60;99.90;;;;;;5063134;28;19956;-73
2023/12/09 00:11:07;;;;;;;;;;;2.50;99.90;;;;;;5062587;28;19929;-73
2023/12/09 00:13:34;;;;;;;;;;;2.50;99.90;;;;;;5065282;28;19920;-72
2023/12/09 00:16:00;;;;;;;;;;;2.50;99.90;;;;;;5066629;28;19943;-73
2023/12/09 00:18:27;;;;;;;;;;;2.50;99.90;;;;;;5066759;28;19956;-73
2023/12/09 00:20:53;;;;;;;;;;;2.50;99.90;;;;;;5067085;28;19963;-72
2023/12/09 00:23:20;;;;;;;;;;;2.50;99.90;;;;;;5067150;28;19921;-73
2023/12/09 00:25:48;;;;;;;;;;;2.50;99.90;;;;;;5066572;28;19984;-73
2023/12/09 00:28:15;;;;;;;;;;;2.50;99.90;;;;;;5066831;28;19974;-72
2023/12/09 00:30:41;;;;;;;;;;;2.50;99.90;;;;;;5066880;28;19943;-72
2023/12/09 00:33:08;;;;;;;;;;;2.50;99.90;;;;;;5066542;28;19940;-73
2023/12/09 00:35:34;;;;;;;;;;;2.50;99.90;;;;;;5066614;28;19985;-72
2023/12/09 00:38:01;;;;;;;;;;;2.50;99.90;;;;;;5066380;28;19920;-73
2023/12/09 00:40:28;;;;;;;;;;;2.60;99.90;;;;;;5066863;28;19988;-73
2023/12/09 00:42:56;;;;;;;;;;;2.60;99.90;;;;;;5066730;28;19920;-73
2023/12/09 00:45:24;;;;;;;;;;;2.50;99.90;;;;;;5066142;28;19991;-72
2023/12/09 00:47:51;;;;;;;;;;;2.60;99.90;;;;;;5065833;28;19925;-72
2023/12/09 00:50:18;;;;;;;;;;;2.50;99.90;;;;;;5066398;28;20257;-73
2023/12/09 00:52:44;;;;;;;;;;;2.60;99.90;;;;;;5066606;28;19921;-73
2023/12/09 00:55:11;;;;;;;;;;;2.50;99.90;;;;;;5066008;28;20011;-72
2023/12/09 00:57:38;;;;;;;;;;;2.50;99.90;;;;;;5066111;28;20214;-73
2023/12/09 01:00:07;;;;;;;;;;;2.50;99.90;;;;;;5066391;28;19921;-71
2023/12/09 01:02:34;;;;;;;;;;;2.40;99.90;;;;;;5065961;28;19921;-74
2023/12/09 01:05:00;;;;;;;;;;;2.50;99.90;;;;;;5065769;28;19988;-73
2023/12/09 01:07:27;;;;;;;;;;;2.40;99.90;;;;;;5066046;28;20297;-72
2023/12/09 01:09:54;;;;;;;;;;;2.50;99.90;;;;;;5066031;28;19921;-72
2023/12/09 01:12:21;;;;;;;;;;;2.50;99.90;;;;;;5065694;28;19921;-72
2023/12/09 01:14:47;;;;;;;;;;;2.50;99.90;;;;;;5065098;28;19920;-73
2023/12/09 01:17:15;;;;;;;;;;;2.40;99.90;;;;;;5066090;28;19983;-72
2023/12/09 01:19:42;;;;;;;;;;;2.50;99.90;;;;;;5065990;28;19992;-72
2023/12/09 01:22:09;;;;;;;;;;;2.40;99.90;;;;;;5065959;28;19992;-73
2023/12/09 01:24:36;;;;;;;;;;;2.40;99.90;;;;;;5065180;28;19921;-72
2023/12/09 01:27:03;;;;;;;;;;;2.40;99.90;;;;;;5065532;28;20206;-73
2023/12/09 01:29:29;;;;;;;;;;;2.50;99.90;;;;;;5065929;28;19927;-73
2023/12/09 01:31:56;;;;;;;;;;;2.50;99.90;;;;;;5065528;28;19984;-72
2023/12/09 01:34:24;;;;;;;;;;;2.40;99.90;;;;;;5065172;28;19920;-73
2023/12/09 01:36:50;;;;;;;;;;;2.50;99.90;;;;;;5065694;28;19952;-72
2023/12/09 01:39:17;;;;;;;;;;;2.50;99.90;;;;;;5065341;28;20229;-73
2023/12/09 01:41:44;;;;;;;;;;;2.40;99.90;;;;;;5065607;28;19983;-71
2023/12/09 01:44:10;;;;;;;;;;;2.50;99.90;;;;;;5065161;28;20207;-72
2023/12/09 01:46:37;;;;;;;;;;;2.50;99.90;;;;;;5064906;28;19927;-73
2023/12/09 01:49:05;;;;;;;;;;;2.50;99.90;;;;;;5065335;28;19927;-73
2023/12/09 01:51:33;;;;;;;;;;;2.50;99.90;;;;;;5065169;28;19920;-72
2023/12/09 01:54:00;;;;;;;;;;;2.50;99.90;;;;;;5064848;28;19966;-73
2023/12/09 01:56:27;;;;;;;;;;;2.50;99.90;;;;;;5065376;28;19963;-72
2023/12/09 01:58:54;;;;;;;;;;;2.50;99.90;;;;;;5064803;28;19963;-73
2023/12/09 02:01:21;;;;;;;;;;;2.50;99.90;;;;;;5065201;28;20143;-73
2023/12/09 02:03:48;;;;;;;;;;;2.50;99.90;;;;;;5064415;28;19984;-73
2023/12/09 02:06:15;;;;;;;;;;;2.50;99.90;;;;;;5057137;28;19993;-73
2023/12/09 02:08:43;;;;;;;;;;;2.50;99.90;;;;;;5064816;28;20238;-73
2023/12/09 02:11:15;;;;;;;;;;;2.50;99.90;;;;;;5064398;28;19935;-72
2023/12/09 02:13:47;;;;;;;;;;;2.50;99.90;;;;;;5064537;28;19966;-73
2023/12/09 02:16:16;;;;;;;;;;;2.50;99.90;;;;;;5064911;28;19921;-72
2023/12/09 02:18:44;;;;;;;;;;;2.60;99.90;;;;;;5064948;28;19929;-72
2023/12/09 02:21:10;;;;;;;;;;;2.50;99.90;;;;;;5064489;28;19928;-71
2023/12/09 02:23:38;;;;;;;;;;;2.50;99.90;;;;;;5064350;28;19979;-71
2023/12/09 02:26:08;;;;;;;;;;;2.60;99.90;;;;;;5064744;28;20108;-71
2023/12/09 02:28:38;;;;;;;;;;;2.50;99.90;;;;;;5064732;28;19988;-72
2023/12/09 02:31:08;;;;;;;;;;;2.50;99.90;;;;;;5064288;28;20225;-71
2023/12/09 02:33:36;;;;;;;;;;;2.50;99.90;;;;;;5064375;28;19979;-73
2023/12/09 02:36:04;;;;;;;;;;;2.50;99.90;;;;;;5063932;28;19920;-71
2023/12/09 02:38:32;;;;;;;;;;;2.50;99.90;;;;;;5064494;28;19980;-72
2023/12/09 02:41:00;;;;;;;;;;;2.60;99.90;;;;;;5064384;28;19920;-71
2023/12/09 02:43:26;;;;;;;;;;;2.60;99.90;;;;;;5064501;28;19921;-72
2023/12/09 02:45:53;;;;;;;;;;;2.60;99.90;;;;;;5062871;28;19995;-71
2023/12/09 02:48:19;;;;;;;;;;;2.60;99.90;;;;;;5064213;28;19979;-72
2023/12/09 02:50:46;;;;;;;;;;;2.60;99.90;;;;;;5064077;28;19920;-71
2023/12/09 02:53:14;;;;;;;;;;;2.50;99.90;;;;;;5063965;28;19944;-72
2023/12/09 02:55:40;;;;;;;;;;;2.60;99.90;;;;;;5063917;28;19924;-71
2023/12/09 02:58:08;;;;;;;;;;;2.50;99.90;;;;;;5063866;28;20163;-72
2023/12/09 03:00:35;;;;;;;;;;;2.60;99.90;;;;;;5065612;28;19979;-71
2023/12/09 03:03:01;;;;;;;;;;;2.60;99.90;;;;;;5063811;28;19940;-70
2023/12/09 03:05:28;;;;;;;;;;;2.50;99.90;;;;;;5063362;28;19992;-71
2023/12/09 03:07:54;;;;;;;;;;;2.60;99.90;;;;;;5063841;28;19988;-72
2023/12/09 03:10:21;;;;;;;;;;;2.60;99.90;;;;;;5063960;28;19920;-72
2023/12/09 03:12:48;;;;;;;;;;;2.60;99.90;;;;;;5063411;28;19976;-71
2023/12/09 03:15:16;;;;;;;;;;;2.60;99.90;;;;;;5063334;28;19921;-71
2023/12/09 03:17:43;;;;;;;;;;;2.60;99.90;;;;;;5063804;28;19980;-72
2023/12/09 03:20:10;;;;;;;;;;;2.50;99.90;;;;;;5063852;28;19980;-71
2023/12/09 03:22:36;;;;;;;;;;;2.60;99.90;;;;;;5063387;28;20233;-71
2023/12/09 03:25:03;;;;;;;;;;;2.60;99.90;;;;;;5063140;28;19959;-72
2023/12/09 03:27:30;;;;;;;;;;;2.60;99.90;;;;;;5063649;28;20139;-71
2023/12/09 03:29:57;;;;;;;;;;;2.50;99.90;;;;;;5063308;28;19920;-71
2023/12/09 03:32:25;;;;;;;;;;;2.60;99.90;;;;;;5063234;28;20206;-72
2023/12/09 03:34:51;;;;;;;;;;;2.60;99.90;;;;;;5062786;28;19983;-72
2023/12/09 03:37:19;;;;;;;;;;;2.60;99.90;;;;;;5063551;28;20067;-72
2023/12/09 03:39:45;;;;;;;;;;;2.60;99.90;;;;;;5063394;28;20091;-71
2023/12/09 03:42:12;;;;;;;;;;;2.60;99.90;;;;;;5063013;28;20285;-72
2023/12/09 03:44:39;;;;;;;;;;;2.60;99.90;;;;;;5062858;28;19921;-71
2023/12/09 03:47:05;;;;;;;;;;;2.60;99.90;;;;;;5061481;28;19987;-72
2023/12/09 03:49:33;;;;;;;;;;;2.60;99.90;;;;;;5062875;28;19921;-71
2023/12/09 03:52:00;;;;;;;;;;;2.60;99.90;;;;;;5063192;28;19983;-71
2023/12/09 03:54:26;;;;;;;;;;;2.60;99.90;;;;;;5062889;28;19980;-70
2023/12/09 03:56:54;;;;;;;;;;;2.70;99.90;;;;;;5063264;28;19980;-71
2023/12/09 03:59:20;;;;;;;;;;;2.70;99.90;;;;;;5063008;28;19992;-72
2023/12/09 04:01:48;;;;;;;;;;;2.70;99.90;;;;;;5063006;28;19921;-72
2023/12/09 04:04:14;;;;;;;;;;;2.70;99.90;;;;;;5062825;28;19974;-72
2023/12/09 04:06:42;;;;;;;;;;;2.60;99.90;;;;;;5063250;28;19920;-72
2023/12/09 04:09:10;;;;;;;;;;;2.60;99.90;;;;;;5063043;28;19920;-71
2023/12/09 04:11:36;;;;;;;;;;;2.60;99.90;;;;;;5062557;28;19921;-72
2023/12/09 04:14:03;;;;;;;;;;;2.70;99.90;;;;;;5061604;28;20234;-71
2023/12/09 04:16:30;;;;;;;;;;;2.60;99.90;;;;;;5063223;28;19928;-72
2023/12/09 04:18:56;;;;;;;;;;;2.60;99.90;;;;;;5063024;28;19921;-72
2023/12/09 04:21:23;;;;;;;;;;;2.70;99.90;;;;;;5063225;28;19983;-71
2023/12/09 04:23:51;;;;;;;;;;;2.70;99.90;;;;;;5062729;28;19927;-72
2023/12/09 04:26:18;;;;;;;;;;;2.70;99.90;;;;;;5063079;28;19943;-72
2023/12/09 04:28:44;;;;;;;;;;;2.70;99.90;;;;;;5062963;28;19921;-72
2023/12/09 04:31:11;;;;;;;;;;;2.70;99.90;;;;;;5062953;28;19928;-72
2023/12/09 04:33:38;;;;;;;;;;;2.70;99.90;;;;;;5062912;28;19967;-72
2023/12/09 04:36:05;;;;;;;;;;;2.70;99.90;;;;;;5062763;28;20246;-72
2023/12/09 04:38:31;;;;;;;;;;;2.70;99.90;;;;;;5065461;28;20182;-72
2023/12/09 04:40:59;;;;;;;;;;;2.70;99.90;;;;;;5066179;28;20013;-72
2023/12/09 04:43:27;;;;;;;;;;;2.70;99.90;;;;;;5062605;28;20248;-72
2023/12/09 04:45:53;;;;;;;;;;;2.70;99.90;;;;;;5062235;28;19970;-72
2023/12/09 04:48:20;;;;;;;;;;;2.70;99.90;;;;;;5060957;28;20227;-72
2023/12/09 04:50:46;;;;;;;;;;;2.70;99.90;;;;;;5061817;28;19983;-72
2023/12/09 04:53:13;;;;;;;;;;;2.70;99.90;;;;;;5062327;28;19921;-72
2023/12/09 04:55:40;;;;;;;;;;;2.70;99.90;;;;;;5062314;28;19927;-72
2023/12/09 04:58:08;;;;;;;;;;;2.70;99.90;;;;;;5062230;28;19956;-72
2023/12/09 05:00:35;;;;;;;;;;;2.70;99.90;;;;;;5066147;28;19927;-73
2023/12/09 05:03:02;;;;;;;;;;;2.70;99.90;;;;;;5065970;28;20203;-72
2023/12/09 05:05:28;;;;;;;;;;;2.70;99.90;;;;;;5065762;28;19920;-72
2023/12/09 05:07:55;;;;;;;;;;;2.70;99.90;;;;;;5066126;28;19983;-72
2023/12/09 05:10:21;;;;;;;;;;;2.70;99.90;;;;;;5066188;28;19927;-73
2023/12/09 05:12:48;;;;;;;;;;;2.70;99.90;;;;;;5064458;28;20240;-72
2023/12/09 05:15:16;;;;;;;;;;;2.70;99.90;;;;;;5065750;28;19979;-72
2023/12/09 05:17:43;;;;;;;;;;;2.70;99.90;;;;;;5066150;28;19921;-72
2023/12/09 05:20:10;;;;;;;;;;;2.70;99.90;;;;;;5066089;28;19956;-72
2023/12/09 05:22:37;;;;;;;;;;;2.70;99.90;;;;;;5066056;28;19921;-72
2023/12/09 05:25:04;;;;;;;;;;;2.70;99.90;;;;;;5065610;28;19962;-72
2023/12/09 05:27:31;;;;;;;;;;;2.70;99.90;;;;;;5065846;28;19924;-72
2023/12/09 05:29:58;;;;;;;;;;;2.70;99.90;;;;;;5065866;28;19959;-72
2023/12/09 05:32:26;;;;;;;;;;;2.70;99.90;;;;;;5065811;28;19984;-72
2023/12/09 05:34:52;;;;;;;;;;;2.70;99.90;;;;;;5064993;28;20390;-72
2023/12/09 05:37:19;;;;;;;;;;;2.70;99.90;;;;;;5065805;28;19960;-72
2023/12/09 05:39:45;;;;;;;;;;;2.70;99.90;;;;;;5065635;28;20091;-72
2023/12/09 05:42:12;;;;;;;;;;;2.70;99.90;;;;;;5065572;28;19921;-72
2023/12/09 05:44:39;;;;;;;;;;;2.70;99.90;;;;;;5065197;28;20113;-71
2023/12/09 05:47:05;;;;;;;;;;;2.70;99.90;;;;;;5064799;28;19984;-71
2023/12/09 05:49:33;;;;;;;;;;;2.70;99.90;;;;;;5065373;28;19960;-72
2023/12/09 05:52:00;;;;;;;;;;;2.70;99.90;;;;;;5065390;28;20165;-72
2023/12/09 05:54:26;;;;;;;;;;;2.70;99.90;;;;;;5064841;28;19981;-72
2023/12/09 05:56:53;;;;;;;;;;;2.70;99.90;;;;;;5065443;28;19921;-70
2023/12/09 05:59:20;;;;;;;;;;;2.60;99.90;;;;;;5065371;28;19983;-72
2023/12/09 06:01:46;;;;;;;;;;;2.60;99.90;;;;;;5065156;28;19983;-72
2023/12/09 06:04:13;;;;;;;;;;;2.60;99.90;;;;;;5064820;28;19927;-72
2023/12/09 06:06:41;;;;;;;;;;;2.70;99.90;;;;;;5065202;28;19920;-71
2023/12/09 06:09:09;;;;;;;;;;;2.70;99.90;;;;;;5064745;28;20256;-71
2023/12/09 06:11:35;;;;;;;;;;;2.60;99.90;;;;;;5063617;28;19921;-72
2023/12/09 06:14:02;;;;;;;;;;;2.60;99.90;;;;;;5063625;28;19980;-72
2023/12/09 06:16:28;;;;;;;;;;;2.70;99.90;;;;;;5064994;28;19920;-72
2023/12/09 06:18:55;;;;;;;;;;;2.70;99.90;;;;;;5064835;28;19921;-72
2023/12/09 06:21:22;;;;;;;;;;;2.70;99.90;;;;;;5064594;28;20172;-71
2023/12/09 06:23:50;;;;;;;;;;;2.70;99.90;;;;;;5064516;28;19956;-72
2023/12/09 06:26:17;;;;;;;;;;;2.70;99.90;;;;;;5064498;28;20230;-73
2023/12/09 06:28:44;;;;;;;;;;;2.60;99.90;;;;;;5064348;28;19988;-71
2023/12/09 06:31:11;;;;;;;;;;;2.60;99.90;;;;;;5064687;28;19979;-72
2023/12/09 06:33:38;;;;;;;;;;;2.60;99.90;;;;;;5063985;28;20402;-71
2023/12/09 06:36:05;;;;;;;;;;;2.70;99.90;;;;;;5064520;28;20164;-72
2023/12/09 06:38:33;;;;;;;;;;;2.70;99.90;;;;;;5064491;28;19927;-72
2023/12/09 06:41:01;;;;;;;;;;;2.70;99.90;;;;;;5064372;28;19928;-72
2023/12/09 06:43:28;;;;;;;;;;;2.70;99.90;;;;;;5064554;28;19927;-72
2023/12/09 06:45:54;;;;;;;;;;;2.70;99.90;;;;;;5063454;28;19983;-71
2023/12/09 06:48:21;;;;;;;;;;;2.70;99.90;;;;;;5064244;28;19921;-72
2023/12/09 06:50:48;;;;;;;;;;;2.70;99.90;;;;;;5064411;28;19984;-72
2023/12/09 06:53:14;;;;;;;;;;;2.60;99.90;;;;;;5055929;28;19921;-73
2023/12/09 06:55:41;;;;;;;;;;;2.70;99.90;;;;;;5063608;28;19976;-72
2023/12/09 06:58:09;;;;;;;;;;;2.80;99.90;;;;;;5064119;28;19921;-72
2023/12/09 07:00:36;;;;;;;;;;;2.70;99.90;;;;;;5063930;28;19921;-72
2023/12/09 07:03:03;;;;;;;;;;;2.70;99.90;;;;;;5064055;28;19963;-72
2023/12/09 07:05:30;;;;;;;;;;;2.80;99.90;;;;;;5063632;28;19921;-72
2023/12/09 07:07:56;;;;;;;;;;;2.80;99.90;;;;;;5064001;28;19927;-72
2023/12/09 07:10:23;;;;;;;;;;;2.80;99.90;;;;;;5063725;28;19996;-71
2023/12/09 07:12:50;;;;;;;;;;;2.80;99.90;;;;;;5062772;28;19927;-71
2023/12/09 07:15:18;;;;;;;;;;;2.90;99.90;;;;;;5063251;28;20285;-72
2023/12/09 07:17:44;;;;;;;;;;;2.90;99.90;;;;;;5063557;28;19952;-73
2023/12/09 07:20:11;;;;;;;;;;;2.90;99.90;;;;;;5063773;28;19921;-72
2023/12/09 07:22:38;;;;;;;;;;;2.90;99.90;;;;;;5063533;28;20106;-72
2023/12/09 07:25:05;;;;;;;;;;;2.90;99.90;;;;;;5062801;28;19963;-72
2023/12/09 07:27:31;;;;;;;;;;;2.80;99.90;;;;;;5063486;28;19991;-72
2023/12/09 07:30:00;;;;;;;;;;;2.90;99.90;;;;;;5063377;28;20117;-71
2023/12/09 07:32:28;;;;;;;;;;;2.90;99.90;;;;;;5063604;28;20214;-72
2023/12/09 07:34:54;;;;;;;;;;;3.00;99.90;;;;;;5063076;28;19921;-72
2023/12/09 07:37:22;;;;;;;;;;;3.00;99.90;;;;;;5062180;28;19952;-72
2023/12/09 07:39:48;;;;;;;;;;;3.00;99.90;;;;;;5057369;28;19921;-71
2023/12/09 07:42:15;;;;;;;;;;;3.00;99.90;;;;;;5063182;28;20267;-72
2023/12/09 07:44:41;;;;;;;;;;;3.00;99.90;;;;;;5063050;28;19988;-71
2023/12/09 07:47:08;;;;;;;;;;;3.00;99.90;;;;;;5062998;28;21131;-72
2023/12/09 07:49:36;;;;;;;;;;;3.00;99.90;;;;;;5063328;28;19921;-72
2023/12/09 07:52:03;;;;;;;;;;;3.10;99.90;;;;;;5063333;28;20165;-71
2023/12/09 07:54:29;;;;;;;;;;;3.10;99.90;;;;;;5062544;28;20186;-72
2023/12/09 07:56:56;;;;;;;;;;;3.10;99.90;;;;;;5063320;28;19920;-70
2023/12/09 07:59:22;;;;;;;;;;;3.10;99.90;;;;;;5062898;28;19920;-71
2023/12/09 08:01:49;;;;;;;;;;;3.10;99.90;;;;;;5063169;28;19920;-70
2023/12/09 08:04:16;;;;;;;;;;;3.20;99.90;;;;;;5062589;28;19920;-69
2023/12/09 08:06:44;;;;;;;;;;;3.20;99.90;;;;;;5063094;28;19953;-70
2023/12/09 08:09:10;;;;;;;;;;;3.20;99.90;;;;;;5062989;28;19921;-70
2023/12/09 08:11:37;;;;;;;;;;;3.20;99.90;;;;;;5062877;28;19924;-70
2023/12/09 08:14:04;;;;;;;;;;;3.20;99.90;;;;;;5062713;28;19952;-71
2023/12/09 08:16:30;;;;;;;;;;;3.30;99.90;;;;;;5063376;28;19927;-69
2023/12/09 08:18:57;;;;;;;;;;;3.30;99.90;;;;;;5063134;28;19921;-72
2023/12/09 08:21:25;;;;;;;;;;;3.40;99.90;;;;;;5063227;28;20162;-71
2023/12/09 08:23:54;;;;;;;;;;;3.40;99.90;;;;;;5062523;28;19924;-72
2023/12/09 08:26:20;;;;;;;;;;;3.40;99.90;;;;;;5063327;28;19925;-72
2023/12/09 08:28:47;;;;;;;;;;;3.40;99.90;;;;;;5063015;28;20039;-72
2023/12/09 08:31:14;;;;;;;;;;;3.40;99.90;;;;;;5062798;28;20302;-72
2023/12/09 08:33:40;;;;;;;;;;;3.30;99.90;;;;;;5063021;28;20214;-72
2023/12/09 08:36:08;;;;;;;;;;;3.30;99.90;;;;;;5066901;28;20099;-72
2023/12/09 08:38:34;;;;;;;;;;;3.40;99.90;;;;;;5066667;28;20282;-73
2023/12/09 08:41:02;;;;;;;;;;;3.40;99.90;;;;;;5066774;28;20261;-71
2023/12/09 08:43:29;;;;;;;;;;;3.30;99.90;;;;;;5066804;28;19959;-70
2023/12/09 08:45:56;;;;;;;;;;;3.40;99.90;;;;;;5065822;28;19956;-72
2023/12/09 08:48:22;;;;;;;;;;;3.40;99.90;;;;;;5066765;28;19927;-72
2023/12/09 08:50:49;;;;;;;;;;;3.30;99.90;;;;;;5066758;28;20201;-72
2023/12/09 08:53:16;;;;;;;;;;;3.30;99.90;;;;;;5066518;28;19963;-72
2023/12/09 08:55:42;;;;;;;;;;;3.40;99.90;;;;;;5066491;28;19956;-72
2023/12/09 08:58:10;;;;;;;;;;;3.40;99.90;;;;;;5066412;28;20233;-73
2023/12/09 09:00:37;;;;;;;;;;;3.40;99.90;;;;;;5066528;28;19983;-73
2023/12/09 09:03:03;;;;;;;;;;;3.50;99.90;;;;;;5066224;28;19927;-71
2023/12/09 09:05:30;;;;;;;;;;;3.40;99.90;;;;;;5066033;28;19927;-70
2023/12/09 09:07:57;;;;;;;;;;;3.50;99.90;;;;;;5065903;28;19928;-71
2023/12/09 09:10:23;;;;;;;;;;;3.50;99.90;;;;;;5066183;28;20122;-71
2023/12/09 09:12:50;;;;;;;;;;;3.50;99.90;;;;;;5063091;28;19942;-72
2023/12/09 09:15:18;;;;;;;;;;;3.50;99.90;;;;;;5057796;28;19933;-71
2023/12/09 09:17:45;;;;;;;;;;;3.50;99.90;;;;;;5065689;28;19963;-71
2023/12/09 09:20:11;;;;;;;;;;;3.50;99.90;;;;;;5065708;28;19975;-71
2023/12/09 09:22:38;;;;;;;;;;;3.50;99.90;;;;;;5065679;28;20118;-71
2023/12/09 09:25:05;;;;;;;;;;;3.50;99.90;;;;;;5065422;28;20114;-71
2023/12/09 09:27:32;;;;;;;;;;;3.40;99.90;;;;;;5065937;28;19979;-69
2023/12/09 09:29:58;;;;;;;;;;;3.50;99.90;;;;;;5065924;28;20158;-71
2023/12/09 09:32:26;;;;;;;;;;;3.50;99.90;;;;;;5065296;28;19960;-71
2023/12/09 09:34:53;;;;;;;;;;;3.50;99.90;;;;;;5065040;28;19952;-71
2023/12/09 09:37:20;;;;;;;;;;;3.60;99.90;;;;;;5065754;28;19943;-73
2023/12/09 09:39:47;;;;;;;;;;;3.50;99.90;;;;;;5065638;28;19956;-71
2023/12/09 09:42:18;;;;;;;;;;;3.50;99.90;;;;;;5065672;28;19920;-71
2023/12/09 09:44:48;;;;;;;;;;;3.40;99.90;;;;;;5064919;28;19960;-71
2023/12/09 09:47:15;;;;;;;;;;;3.40;99.90;;;;;;5059959;28;19921;-72
2023/12/09 09:49:46;;;;;;;;;;;3.40;99.90;;;;;;5065171;28;19920;-71
2023/12/09 09:52:13;;;;;;;;;;;3.40;99.90;;;;;;5065095;28;19981;-71
2023/12/09 09:54:40;;;;;;;;;;;3.40;99.90;;;;;;5064341;28;20285;-73
2023/12/09 09:57:08;;;;;;;;;;;3.40;99.90;;;;;;5065395;28;19920;-70
2023/12/09 09:59:35;;;;;;;;;;;3.30;99.90;;;;;;5065730;28;20121;-70
2023/12/09 10:02:04;;;;;;;;;;;3.30;99.90;;;;;;5065144;28;20237;-71
2023/12/09 10:04:31;;;;;;;;;;;3.20;99.90;;;;;;5064499;28;20234;-70
2023/12/09 10:07:00;;;;;;;;;;;3.10;99.90;;;;;;5064792;28;19988;-70
2023/12/09 10:09:27;;;;;;;;;;;3.10;99.90;;;;;;5065093;28;19988;-69
2023/12/09 10:11:54;;;;;;;;;;;3.10;99.90;;;;;;5064794;28;20261;-70
2023/12/09 10:14:20;;;;;;;;;;;3.10;99.90;;;;;;5064600;28;19984;-69
2023/12/09 10:16:47;;;;;;;;;;;3.10;99.90;;;;;;5065089;28;19921;-69
2023/12/09 10:19:16;;;;;;;;;;;3.10;99.90;;;;;;5064805;28;19921;-70
2023/12/09 10:21:43;;;;;;;;;;;3.00;99.90;;;;;;5064860;28;19921;-69
2023/12/09 10:24:11;;;;;;;;;;;3.00;99.90;;;;;;5064333;28;19920;-70
2023/12/09 10:26:38;;;;;;;;;;;3.00;99.90;;;;;;5064804;28;20158;-70
2023/12/09 10:29:06;;;;;;;;;;;3.00;99.90;;;;;;5064540;28;19968;-70
2023/12/09 10:31:35;;;;;;;;;;;3.10;99.90;;;;;;5064796;28;19921;-71
2023/12/09 10:34:02;;;;;;;;;;;3.10;99.90;;;;;;5063976;28;20206;-72
2023/12/09 10:36:30;;;;;;;;;;;3.10;99.90;;;;;;5064016;28;19984;-71
2023/12/09 10:38:57;;;;;;;;;;;3.10;99.90;;;;;;5064289;28;19975;-71
2023/12/09 10:41:25;;;;;;;;;;;3.10;99.90;;;;;;5063036;28;19980;-70
2023/12/09 10:43:53;;;;;;;;;;;3.10;99.90;;;;;;5063303;28;19929;-70
2023/12/09 10:46:20;;;;;;;;;;;3.20;99.90;;;;;;5064410;28;19920;-70
2023/12/09 10:48:47;;;;;;;;;;;3.20;99.90;;;;;;5064024;28;20265;-70
2023/12/09 10:51:13;;;;;;;;;;;3.30;99.90;;;;;;5061733;28;19956;-71
2023/12/09 10:53:40;;;;;;;;;;;3.30;99.90;;;;;;5062311;28;19920;-71
2023/12/09 10:56:08;;;;;;;;;;;3.40;99.90;;;;;;5063690;28;19921;-71
2023/12/09 10:58:37;;;;;;;;;;;3.40;99.90;;;;;;5063788;28;19927;-71
2023/12/09 11:01:04;;;;;;;;;;;3.50;99.90;;;;;;5063712;28;19944;-71
2023/12/09 11:03:31;;;;;;;;;;;3.60;99.90;;;;;;5063984;28;19920;-71
2023/12/09 11:05:59;;;;;;;;;;;3.50;99.90;;;;;;5063633;28;19921;-70
2023/12/09 11:08:28;;;;;;;;;;;3.60;99.90;;;;;;5063931;28;19952;-71
2023/12/09 11:10:55;;;;;;;;;;;3.60;99.90;;;;;;5063831;28;19925;-70
2023/12/09 11:13:24;;;;;;;;;;;3.60;99.90;;;;;;5063772;28;19927;-71
2023/12/09 11:16:07;;;;;;;;;;;3.60;99.90;;;;;;5063382;28;19984;-72
2023/12/09 11:18:34;;;;;;;;;;;3.60;99.90;;;;;;5063771;28;19996;-71
2023/12/09 11:21:02;;;;;;;;;;;3.60;99.90;;;;;;5063512;28;19921;-71
2023/12/09 11:23:29;;;;;;;;;;;3.60;99.90;;;;;;5063292;28;20272;-71
2023/12/09 11:25:56;;;;;;;;;;;3.60;99.90;;;;;;5063101;28;19988;-72
2023/12/09 11:28:22;;;;;;;;;;;3.60;99.90;;;;;;5063426;28;19920;-70
2023/12/09 11:30:56;;;;;;;;;;;3.60;99.90;;;;;;5063090;28;19991;-71
2023/12/09 11:33:25;;;;;;;;;;;3.60;99.90;;;;;;5063463;28;19920;-73
2023/12/09 11:35:53;;;;;;;;;;;3.60;99.90;;;;;;5062842;28;19952;-70
2023/12/09 11:38:20;;;;;;;;;;;3.60;99.90;;;;;;5063616;28;19988;-70
2023/12/09 11:40:47;;;;;;;;;;;3.70;99.90;;;;;;5059989;28;19984;-74
2023/12/09 11:43:14;;;;;;;;;;;3.70;99.90;;;;;;5063294;28;19927;-74
2023/12/09 11:45:40;;;;;;;;;;;3.80;99.90;;;;;;5062862;28;19991;-74
2023/12/09 11:48:07;;;;;;;;;;;3.80;99.90;;;;;;5063541;28;19929;-72
2023/12/09 11:50:35;;;;;;;;;;;3.90;99.90;;;;;;5061610;28;19920;-71
2023/12/09 11:53:02;;;;;;;;;;;3.90;99.90;;;;;;5062153;28;19991;-71
2023/12/09 11:55:29;;;;;;;;;;;4.00;99.90;;;;;;5062714;28;19921;-70
2023/12/09 11:57:55;;;;;;;;;;;4.00;99.90;;;;;;5063218;28;19927;-72
2023/12/09 12:00:22;;;;;;;;;;;4.00;99.90;;;;;;5062946;28;19986;-70
2023/12/09 12:02:49;;;;;;;;;;;4.10;99.90;;;;;;5062739;28;19963;-70
2023/12/09 12:05:15;;;;;;;;;;;4.10;99.90;;;;;;5062418;28;19928;-70
2023/12/09 12:07:43;;;;;;;;;;;4.20;99.90;;;;;;5063165;28;19921;-71
2023/12/09 12:10:14;;;;;;;;;;;4.20;99.90;;;;;;5066507;28;19921;-70
2023/12/09 12:12:41;;;;;;;;;;;4.20;99.90;;;;;;5067015;28;19921;-70
2023/12/09 12:15:08;;;;;;;;;;;4.20;99.90;;;;;;5066582;28;19921;-70
2023/12/09 12:17:38;;;;;;;;;;;4.20;99.90;;;;;;5067000;28;19928;-70
2023/12/09 12:20:06;;;;;;;;;;;4.20;99.90;;;;;;5066618;28;19921;-71
2023/12/09 12:22:33;;;;;;;;;;;4.20;99.90;;;;;;5066736;28;20210;-71
2023/12/09 12:25:01;;;;;;;;;;;4.20;99.90;;;;;;5066130;28;19943;-70
2023/12/09 12:27:27;;;;;;;;;;;4.20;99.90;;;;;;5067089;28;19959;-70
2023/12/09 12:29:55;;;;;;;;;;;4.20;99.90;;;;;;5066921;28;19928;-71
2023/12/09 12:32:22;;;;;;;;;;;4.20;99.90;;;;;;5066712;28;20210;-70
2023/12/09 12:34:50;;;;;;;;;;;4.20;99.90;;;;;;5066300;28;20118;-71
2023/12/09 12:37:18;;;;;;;;;;;4.20;99.90;;;;;;5066875;28;19924;-71
2023/12/09 12:39:44;;;;;;;;;;;4.20;99.90;;;;;;5066564;28;20214;-70
2023/12/09 12:42:13;;;;;;;;;;;4.10;99.90;;;;;;5066749;28;19928;-70
2023/12/09 12:44:41;;;;;;;;;;;4.20;99.90;;;;;;5066273;28;19921;-70
2023/12/09 12:47:09;;;;;;;;;;;4.20;99.90;;;;;;5066519;28;19920;-71
2023/12/09 12:49:37;;;;;;;;;;;4.10;99.90;;;;;;5066592;28;19959;-70
2023/12/09 12:52:04;;;;;;;;;;;4.20;99.90;;;;;;5066571;28;19925;-73
2023/12/09 12:54:31;;;;;;;;;;;4.10;99.90;;;;;;5063797;28;19948;-70
2023/12/09 12:56:58;;;;;;;;;;;4.20;99.90;;;;;;5061622;28;19927;-71
2023/12/09 12:59:26;;;;;;;;;;;4.20;99.90;;;;;;5065981;28;19921;-70
2023/12/09 13:01:52;;;;;;;;;;;4.20;99.90;;;;;;5065928;28;20241;-71
2023/12/09 13:04:19;;;;;;;;;;;4.30;99.90;;;;;;5065252;28;19920;-70
2023/12/09 13:06:46;;;;;;;;;;;4.30;99.90;;;;;;5065408;28;20110;-72
2023/12/09 13:09:12;;;;;;;;;;;4.40;99.90;;;;;;5065891;28;19921;-70
2023/12/09 13:11:40;;;;;;;;;;;4.40;99.90;;;;;;5065190;28;19932;-71
2023/12/09 13:14:07;;;;;;;;;;;4.50;99.90;;;;;;5065795;28;19925;-70
2023/12/09 13:16:37;;;;;;;;;;;4.50;99.90;;;;;;5065878;28;19985;-71
2023/12/09 13:19:03;;;;;;;;;;;4.50;99.90;;;;;;5055524;28;19929;-70
2023/12/09 13:21:30;;;;;;;;;;;4.40;99.90;;;;;;5064662;28;19924;-70
2023/12/09 13:23:57;;;;;;;;;;;4.40;99.90;;;;;;5064153;28;19921;-72
2023/12/09 13:26:23;;;;;;;;;;;4.40;99.90;;;;;;5064764;28;19925;-70
2023/12/09 13:28:50;;;;;;;;;;;4.40;99.90;;;;;;5065386;28;20214;-71
2023/12/09 13:31:17;;;;;;;;;;;4.40;99.90;;;;;;5064977;28;20142;-71
2023/12/09 13:33:45;;;;;;;;;;;4.40;99.90;;;;;;5065289;28;19952;-70
2023/12/09 13:36:12;;;;;;;;;;;4.40;99.90;;;;;;5065883;28;19927;-75
2023/12/09 13:38:39;;;;;;;;;;;4.30;99.90;;;;;;5065890;28;20148;-72
2023/12/09 13:41:06;;;;;;;;;;;4.30;99.90;;;;;;5064325;28;19956;-71
2023/12/09 13:43:33;;;;;;;;;;;4.40;99.90;;;;;;5064892;28;19932;-72
2023/12/09 13:46:00;;;;;;;;;;;4.40;99.90;;;;;;5064068;28;20219;-72
2023/12/09 13:48:27;;;;;;;;;;;4.40;99.90;;;;;;5064616;28;19963;-71
2023/12/09 13:50:55;;;;;;;;;;;4.40;99.90;;;;;;5065163;28;19921;-71
2023/12/09 13:53:22;;;;;;;;;;;4.40;99.90;;;;;;5065450;28;20303;-72
2023/12/09 13:55:48;;;;;;;;;;;4.40;99.90;;;;;;5064700;28;19927;-71
2023/12/09 13:58:15;;;;;;;;;;;4.40;99.90;;;;;;5064265;28;20206;-70
2023/12/09 14:00:42;;;;;;;;;;;4.40;99.90;;;;;;5065025;28;20110;-72
2023/12/09 14:03:09;;;;;;;;;;;4.40;99.90;;;;;;5065103;28;19952;-72
2023/12/09 14:05:36;;;;;;;;;;;4.40;99.90;;;;;;5064085;28;19928;-72
2023/12/09 14:08:04;;;;;;;;;;;4.40;99.90;;;;;;5065024;28;20198;-77
2023/12/09 14:10:30;;;;;;;;;;;4.30;99.90;;;;;;5065687;28;19925;-71
2023/12/09 14:12:57;;;;;;;;;;;4.30;99.90;;;;;;5064597;28;19921;-71
2023/12/09 14:15:24;;;;;;;;;;;4.30;99.90;;;;;;5060348;28;19921;-72
2023/12/09 14:17:51;;;;;;;;;;;4.40;99.90;;;;;;5064601;28;19921;-73
2023/12/09 14:20:19;;;;;;;;;;;4.40;99.90;;;;;;5064495;28;20464;-72
2023/12/09 14:22:46;;;;;;;;;;;4.30;99.90;;;;;;5064878;28;19920;-72
2023/12/09 14:25:14;;;;;;;;;;;4.30;99.90;;;;;;5064372;28;19921;-72
2023/12/09 14:27:41;;;;;;;;;;;4.30;99.90;;;;;;5064697;28;19935;-73
2023/12/09 14:30:10;;;;;;;;;;;4.30;99.90;;;;;;5064144;28;19921;-72